sensor_id;sensor_type;location;lat;lon;timestamp;P1;durP1;ratioP1;P2;durP2;ratioP2
72949;SDS011;64868;45.710;9.590;2023-02-15T00:00:40;18.60;;;7.43;;
72949;SDS011;64868;45.710;9.590;2023-02-15T00:03:10;17.45;;;7.50;;
72949;SDS011;64868;45.710;9.590;2023-02-15T00:05:40;17.50;;;7.45;;
72949;SDS011;64868;45.710;9.590;2023-02-15T00:08:13;16.13;;;7.35;;
72949;SDS011;64868;45.710;9.590;2023-02-15T00:10:43;18.27;;;7.20;;
72949;SDS011;64868;45.710;9.590;2023-02-15T00:13:15;16.15;;;6.90;;
72949;SDS011;64868;45.710;9.590;2023-02-15T00:15:48;17.83;;;7.50;;
72949;SDS011;64868;45.710;9.590;2023-02-15T00:18:13;16.38;;;6.78;;
72949;SDS011;64868;45.710;9.590;2023-02-15T00:20:41;17.42;;;6.70;;
72949;SDS011;64868;45.710;9.590;2023-02-15T00:23:18;17.85;;;7.43;;
72949;SDS011;64868;45.710;9.590;2023-02-15T00:25:46;16.70;;;6.63;;
72949;SDS011;64868;45.710;9.590;2023-02-15T00:28:14;16.70;;;6.95;;
72949;SDS011;64868;45.710;9.590;2023-02-15T00:30:42;16.13;;;7.20;;
72949;SDS011;64868;45.710;9.590;2023-02-15T00:33:14;19.15;;;6.88;;
72949;SDS011;64868;45.710;9.590;2023-02-15T00:35:44;18.55;;;7.20;;
72949;SDS011;64868;45.710;9.590;2023-02-15T00:38:15;15.35;;;6.68;;
72949;SDS011;64868;45.710;9.590;2023-02-15T00:40:42;14.43;;;6.28;;
72949;SDS011;64868;45.710;9.590;2023-02-15T00:43:18;15.63;;;6.15;;
72949;SDS011;64868;45.710;9.590;2023-02-15T00:45:46;13.32;;;5.82;;
72949;SDS011;64868;45.710;9.590;2023-02-15T00:48:16;17.50;;;6.30;;
72949;SDS011;64868;45.710;9.590;2023-02-15T00:50:48;16.40;;;6.55;;
72949;SDS011;64868;45.710;9.590;2023-02-15T00:53:21;16.27;;;6.13;;
72949;SDS011;64868;45.710;9.590;2023-02-15T00:55:55;16.92;;;5.82;;
72949;SDS011;64868;45.710;9.590;2023-02-15T00:58:25;14.13;;;6.07;;
72949;SDS011;64868;45.710;9.590;2023-02-15T01:00:55;14.23;;;5.97;;
72949;SDS011;64868;45.710;9.590;2023-02-15T01:03:36;15.23;;;5.88;;
72949;SDS011;64868;45.710;9.590;2023-02-15T01:06:08;14.55;;;5.53;;
72949;SDS011;64868;45.710;9.590;2023-02-15T01:08:41;16.25;;;5.65;;
72949;SDS011;64868;45.710;9.590;2023-02-15T01:11:11;13.45;;;5.78;;
72949;SDS011;64868;45.710;9.590;2023-02-15T01:13:42;14.88;;;6.43;;
72949;SDS011;64868;45.710;9.590;2023-02-15T01:16:15;15.93;;;5.80;;
72949;SDS011;64868;45.710;9.590;2023-02-15T01:18:45;14.57;;;6.60;;
72949;SDS011;64868;45.710;9.590;2023-02-15T01:21:18;16.05;;;6.47;;
72949;SDS011;64868;45.710;9.590;2023-02-15T01:23:52;16.00;;;5.95;;
72949;SDS011;64868;45.710;9.590;2023-02-15T01:26:22;13.63;;;6.13;;
72949;SDS011;64868;45.710;9.590;2023-02-15T01:28:54;16.40;;;6.28;;
72949;SDS011;64868;45.710;9.590;2023-02-15T01:31:29;15.88;;;6.25;;
72949;SDS011;64868;45.710;9.590;2023-02-15T01:33:59;12.95;;;5.95;;
72949;SDS011;64868;45.710;9.590;2023-02-15T01:36:31;17.83;;;6.47;;
72949;SDS011;64868;45.710;9.590;2023-02-15T01:39:05;13.98;;;6.07;;
72949;SDS011;64868;45.710;9.590;2023-02-15T01:41:37;15.55;;;6.50;;
72949;SDS011;64868;45.710;9.590;2023-02-15T01:47:11;14.80;;;5.15;;
72949;SDS011;64868;45.710;9.590;2023-02-15T01:49:45;11.45;;;4.97;;
72949;SDS011;64868;45.710;9.590;2023-02-15T01:52:19;12.27;;;4.90;;
72949;SDS011;64868;45.710;9.590;2023-02-15T01:54:51;12.50;;;5.00;;
72949;SDS011;64868;45.710;9.590;2023-02-15T01:57:19;12.93;;;4.90;;
72949;SDS011;64868;45.710;9.590;2023-02-15T01:59:54;11.65;;;4.80;;
72949;SDS011;64868;45.710;9.590;2023-02-15T02:02:30;10.35;;;4.30;;
72949;SDS011;64868;45.710;9.590;2023-02-15T02:05:00;10.40;;;4.13;;
72949;SDS011;64868;45.710;9.590;2023-02-15T02:07:33;10.98;;;4.43;;
72949;SDS011;64868;45.710;9.590;2023-02-15T02:10:04;11.48;;;4.25;;
72949;SDS011;64868;45.710;9.590;2023-02-15T02:12:39;11.40;;;4.18;;
72949;SDS011;64868;45.710;9.590;2023-02-15T02:15:10;10.63;;;4.13;;
72949;SDS011;64868;45.710;9.590;2023-02-15T02:18:04;12.32;;;4.50;;
72949;SDS011;64868;45.710;9.590;2023-02-15T02:20:47;10.43;;;4.22;;
72949;SDS011;64868;45.710;9.590;2023-02-15T02:26:48;12.63;;;4.53;;
72949;SDS011;64868;45.710;9.590;2023-02-15T02:29:43;11.95;;;3.83;;
72949;SDS011;64868;45.710;9.590;2023-02-15T02:35:30;9.95;;;4.05;;
72949;SDS011;64868;45.710;9.590;2023-02-15T02:38:21;11.05;;;4.22;;
72949;SDS011;64868;45.710;9.590;2023-02-15T02:43:51;12.30;;;3.85;;
72949;SDS011;64868;45.710;9.590;2023-02-15T02:46:40;9.38;;;3.67;;
72949;SDS011;64868;45.710;9.590;2023-02-15T02:49:20;9.07;;;3.80;;
72949;SDS011;64868;45.710;9.590;2023-02-15T02:51:59;10.60;;;3.85;;
72949;SDS011;64868;45.710;9.590;2023-02-15T02:54:30;9.63;;;3.83;;
72949;SDS011;64868;45.710;9.590;2023-02-15T02:57:02;9.70;;;3.78;;
72949;SDS011;64868;45.710;9.590;2023-02-15T02:59:37;10.07;;;3.60;;
72949;SDS011;64868;45.710;9.590;2023-02-15T03:02:13;9.40;;;3.13;;
72949;SDS011;64868;45.710;9.590;2023-02-15T03:04:50;10.82;;;3.63;;
72949;SDS011;64868;45.710;9.590;2023-02-15T03:07:30;9.23;;;3.60;;
72949;SDS011;64868;45.710;9.590;2023-02-15T03:10:04;10.43;;;3.80;;
72949;SDS011;64868;45.710;9.590;2023-02-15T03:12:39;10.20;;;3.75;;
72949;SDS011;64868;45.710;9.590;2023-02-15T03:15:12;11.05;;;3.70;;
72949;SDS011;64868;45.710;9.590;2023-02-15T03:17:48;10.90;;;3.65;;
72949;SDS011;64868;45.710;9.590;2023-02-15T03:20:25;8.95;;;3.60;;
72949;SDS011;64868;45.710;9.590;2023-02-15T03:22:57;10.52;;;3.42;;
72949;SDS011;64868;45.710;9.590;2023-02-15T03:25:34;9.88;;;3.45;;
72949;SDS011;64868;45.710;9.590;2023-02-15T03:28:09;9.45;;;3.20;;
72949;SDS011;64868;45.710;9.590;2023-02-15T03:30:41;13.02;;;4.22;;
72949;SDS011;64868;45.710;9.590;2023-02-15T03:33:16;10.35;;;3.45;;
72949;SDS011;64868;45.710;9.590;2023-02-15T03:38:52;7.85;;;2.63;;
72949;SDS011;64868;45.710;9.590;2023-02-15T03:41:24;9.30;;;3.03;;
72949;SDS011;64868;45.710;9.590;2023-02-15T03:44:00;9.38;;;3.00;;
72949;SDS011;64868;45.710;9.590;2023-02-15T03:46:41;8.60;;;3.22;;
72949;SDS011;64868;45.710;9.590;2023-02-15T03:52:18;8.13;;;2.90;;
72949;SDS011;64868;45.710;9.590;2023-02-15T03:54:54;9.88;;;3.60;;
72949;SDS011;64868;45.710;9.590;2023-02-15T03:57:25;9.75;;;3.20;;
72949;SDS011;64868;45.710;9.590;2023-02-15T04:00:24;8.13;;;3.33;;
72949;SDS011;64868;45.710;9.590;2023-02-15T04:03:20;8.75;;;3.10;;
72949;SDS011;64868;45.710;9.590;2023-02-15T04:06:08;9.77;;;3.33;;
72949;SDS011;64868;45.710;9.590;2023-02-15T04:08:41;9.10;;;3.25;;
72949;SDS011;64868;45.710;9.590;2023-02-15T04:11:29;8.77;;;3.10;;
72949;SDS011;64868;45.710;9.590;2023-02-15T04:14:02;9.20;;;2.75;;
72949;SDS011;64868;45.710;9.590;2023-02-15T04:16:49;8.25;;;3.00;;
72949;SDS011;64868;45.710;9.590;2023-02-15T04:19:22;9.82;;;3.08;;
72949;SDS011;64868;45.710;9.590;2023-02-15T04:22:11;7.47;;;2.75;;
72949;SDS011;64868;45.710;9.590;2023-02-15T04:25:00;9.68;;;2.72;;
72949;SDS011;64868;45.710;9.590;2023-02-15T04:27:45;10.00;;;3.13;;
72949;SDS011;64868;45.710;9.590;2023-02-15T04:30:19;11.60;;;3.03;;
72949;SDS011;64868;45.710;9.590;2023-02-15T04:32:53;9.40;;;2.42;;
72949;SDS011;64868;45.710;9.590;2023-02-15T04:35:26;7.97;;;2.63;;
72949;SDS011;64868;45.710;9.590;2023-02-15T04:37:58;8.30;;;2.58;;
72949;SDS011;64868;45.710;9.590;2023-02-15T04:42:56;7.57;;;2.53;;
72949;SDS011;64868;45.710;9.590;2023-02-15T04:45:24;9.60;;;3.17;;
72949;SDS011;64868;45.710;9.590;2023-02-15T04:47:54;10.15;;;2.60;;
72949;SDS011;64868;45.710;9.590;2023-02-15T04:50:24;8.73;;;2.90;;
72949;SDS011;64868;45.710;9.590;2023-02-15T04:52:54;8.25;;;3.05;;
72949;SDS011;64868;45.710;9.590;2023-02-15T04:55:25;10.88;;;3.58;;
72949;SDS011;64868;45.710;9.590;2023-02-15T04:57:57;8.75;;;3.00;;
72949;SDS011;64868;45.710;9.590;2023-02-15T05:00:25;12.02;;;3.10;;
72949;SDS011;64868;45.710;9.590;2023-02-15T05:02:53;8.57;;;2.70;;
72949;SDS011;64868;45.710;9.590;2023-02-15T05:05:25;7.90;;;2.80;;
72949;SDS011;64868;45.710;9.590;2023-02-15T05:07:56;8.07;;;2.28;;
72949;SDS011;64868;45.710;9.590;2023-02-15T05:10:26;10.00;;;2.60;;
72949;SDS011;64868;45.710;9.590;2023-02-15T05:12:56;6.88;;;2.40;;
72949;SDS011;64868;45.710;9.590;2023-02-15T05:15:26;8.60;;;2.90;;
72949;SDS011;64868;45.710;9.590;2023-02-15T05:17:56;8.95;;;2.55;;
72949;SDS011;64868;45.710;9.590;2023-02-15T05:22:57;7.22;;;2.47;;
72949;SDS011;64868;45.710;9.590;2023-02-15T05:25:27;7.47;;;2.70;;
72949;SDS011;64868;45.710;9.590;2023-02-15T05:28:13;8.38;;;2.63;;
72949;SDS011;64868;45.710;9.590;2023-02-15T05:30:49;9.43;;;3.72;;
72949;SDS011;64868;45.710;9.590;2023-02-15T05:33:29;10.80;;;4.07;;
72949;SDS011;64868;45.710;9.590;2023-02-15T05:35:59;11.63;;;4.32;;
72949;SDS011;64868;45.710;9.590;2023-02-15T05:38:32;11.48;;;3.88;;
72949;SDS011;64868;45.710;9.590;2023-02-15T05:41:04;11.73;;;4.18;;
72949;SDS011;64868;45.710;9.590;2023-02-15T05:43:35;11.38;;;3.80;;
72949;SDS011;64868;45.710;9.590;2023-02-15T05:46:01;9.30;;;3.50;;
72949;SDS011;64868;45.710;9.590;2023-02-15T05:48:34;9.20;;;3.05;;
72949;SDS011;64868;45.710;9.590;2023-02-15T05:51:10;7.53;;;2.70;;
72949;SDS011;64868;45.710;9.590;2023-02-15T05:53:44;8.52;;;2.85;;
72949;SDS011;64868;45.710;9.590;2023-02-15T05:56:14;10.65;;;2.92;;
72949;SDS011;64868;45.710;9.590;2023-02-15T05:58:44;10.98;;;3.13;;
72949;SDS011;64868;45.710;9.590;2023-02-15T06:01:17;10.20;;;3.45;;
72949;SDS011;64868;45.710;9.590;2023-02-15T06:03:50;9.35;;;2.70;;
72949;SDS011;64868;45.710;9.590;2023-02-15T06:06:20;8.55;;;2.60;;
72949;SDS011;64868;45.710;9.590;2023-02-15T06:08:53;8.27;;;2.38;;
72949;SDS011;64868;45.710;9.590;2023-02-15T06:11:23;10.82;;;2.58;;
72949;SDS011;64868;45.710;9.590;2023-02-15T06:13:53;7.75;;;2.70;;
72949;SDS011;64868;45.710;9.590;2023-02-15T06:16:23;7.93;;;2.70;;
72949;SDS011;64868;45.710;9.590;2023-02-15T06:21:23;8.40;;;2.80;;
72949;SDS011;64868;45.710;9.590;2023-02-15T06:23:56;8.38;;;2.88;;
72949;SDS011;64868;45.710;9.590;2023-02-15T06:26:29;13.57;;;3.15;;
72949;SDS011;64868;45.710;9.590;2023-02-15T06:29:01;9.27;;;2.72;;
72949;SDS011;64868;45.710;9.590;2023-02-15T06:34:02;7.93;;;2.67;;
72949;SDS011;64868;45.710;9.590;2023-02-15T06:36:32;8.80;;;2.83;;
72949;SDS011;64868;45.710;9.590;2023-02-15T06:39:04;9.20;;;2.58;;
72949;SDS011;64868;45.710;9.590;2023-02-15T06:41:35;10.52;;;2.42;;
72949;SDS011;64868;45.710;9.590;2023-02-15T06:44:02;7.07;;;2.40;;
72949;SDS011;64868;45.710;9.590;2023-02-15T06:46:35;10.10;;;2.78;;
72949;SDS011;64868;45.710;9.590;2023-02-15T06:49:08;8.82;;;2.63;;
72949;SDS011;64868;45.710;9.590;2023-02-15T06:51:35;7.28;;;2.22;;
72949;SDS011;64868;45.710;9.590;2023-02-15T06:54:05;7.60;;;2.50;;
72949;SDS011;64868;45.710;9.590;2023-02-15T06:56:36;10.43;;;2.50;;
72949;SDS011;64868;45.710;9.590;2023-02-15T06:59:06;9.65;;;2.20;;
72949;SDS011;64868;45.710;9.590;2023-02-15T07:01:36;8.82;;;2.65;;
72949;SDS011;64868;45.710;9.590;2023-02-15T07:04:06;7.53;;;2.13;;
72949;SDS011;64868;45.710;9.590;2023-02-15T07:06:38;9.13;;;2.33;;
72949;SDS011;64868;45.710;9.590;2023-02-15T07:09:09;7.03;;;2.42;;
72949;SDS011;64868;45.710;9.590;2023-02-15T07:11:41;8.32;;;2.40;;
72949;SDS011;64868;45.710;9.590;2023-02-15T07:14:28;9.85;;;2.60;;
72949;SDS011;64868;45.710;9.590;2023-02-15T07:16:58;9.07;;;2.88;;
72949;SDS011;64868;45.710;9.590;2023-02-15T07:19:23;8.20;;;2.72;;
72949;SDS011;64868;45.710;9.590;2023-02-15T07:21:54;8.65;;;3.22;;
72949;SDS011;64868;45.710;9.590;2023-02-15T07:24:22;11.13;;;3.90;;
72949;SDS011;64868;45.710;9.590;2023-02-15T07:26:54;12.40;;;4.35;;
72949;SDS011;64868;45.710;9.590;2023-02-15T07:29:24;13.98;;;4.32;;
72949;SDS011;64868;45.710;9.590;2023-02-15T07:31:54;13.05;;;3.80;;
72949;SDS011;64868;45.710;9.590;2023-02-15T07:34:22;11.70;;;3.88;;
72949;SDS011;64868;45.710;9.590;2023-02-15T07:36:52;10.65;;;3.15;;
72949;SDS011;64868;45.710;9.590;2023-02-15T07:39:25;10.60;;;3.53;;
72949;SDS011;64868;45.710;9.590;2023-02-15T07:41:55;13.00;;;3.20;;
72949;SDS011;64868;45.710;9.590;2023-02-15T07:44:25;10.93;;;3.40;;
72949;SDS011;64868;45.710;9.590;2023-02-15T07:46:56;9.75;;;3.30;;
72949;SDS011;64868;45.710;9.590;2023-02-15T07:49:27;11.27;;;3.22;;
72949;SDS011;64868;45.710;9.590;2023-02-15T07:51:55;11.23;;;2.97;;
72949;SDS011;64868;45.710;9.590;2023-02-15T07:54:25;9.00;;;3.05;;
72949;SDS011;64868;45.710;9.590;2023-02-15T07:56:55;11.65;;;3.10;;
72949;SDS011;64868;45.710;9.590;2023-02-15T07:59:25;11.00;;;3.50;;
72949;SDS011;64868;45.710;9.590;2023-02-15T08:01:55;9.38;;;2.83;;
72949;SDS011;64868;45.710;9.590;2023-02-15T08:04:25;13.20;;;2.83;;
72949;SDS011;64868;45.710;9.590;2023-02-15T08:06:55;10.30;;;2.78;;
72949;SDS011;64868;45.710;9.590;2023-02-15T08:09:28;10.65;;;3.00;;
72949;SDS011;64868;45.710;9.590;2023-02-15T08:12:01;10.07;;;3.05;;
72949;SDS011;64868;45.710;9.590;2023-02-15T08:14:33;9.10;;;2.70;;
72949;SDS011;64868;45.710;9.590;2023-02-15T08:17:03;9.38;;;2.95;;
72949;SDS011;64868;45.710;9.590;2023-02-15T08:19:36;13.77;;;2.97;;
72949;SDS011;64868;45.710;9.590;2023-02-15T08:22:10;9.52;;;3.25;;
72949;SDS011;64868;45.710;9.590;2023-02-15T08:24:43;12.23;;;2.78;;
72949;SDS011;64868;45.710;9.590;2023-02-15T08:27:16;9.27;;;2.88;;
72949;SDS011;64868;45.710;9.590;2023-02-15T08:29:53;8.60;;;2.83;;
72949;SDS011;64868;45.710;9.590;2023-02-15T08:32:26;9.05;;;3.00;;
72949;SDS011;64868;45.710;9.590;2023-02-15T08:34:56;11.27;;;3.35;;
72949;SDS011;64868;45.710;9.590;2023-02-15T08:37:26;7.50;;;2.90;;
72949;SDS011;64868;45.710;9.590;2023-02-15T08:39:59;11.35;;;3.78;;
72949;SDS011;64868;45.710;9.590;2023-02-15T08:42:29;10.55;;;3.35;;
72949;SDS011;64868;45.710;9.590;2023-02-15T08:45:03;13.93;;;3.95;;
72949;SDS011;64868;45.710;9.590;2023-02-15T08:47:36;9.85;;;3.72;;
72949;SDS011;64868;45.710;9.590;2023-02-15T08:50:06;13.90;;;4.75;;
72949;SDS011;64868;45.710;9.590;2023-02-15T08:52:36;13.60;;;4.47;;
72949;SDS011;64868;45.710;9.590;2023-02-15T08:55:09;18.17;;;5.38;;
72949;SDS011;64868;45.710;9.590;2023-02-15T08:57:41;16.75;;;4.80;;
72949;SDS011;64868;45.710;9.590;2023-02-15T09:00:10;12.57;;;4.38;;
72949;SDS011;64868;45.710;9.590;2023-02-15T09:02:41;15.25;;;4.32;;
72949;SDS011;64868;45.710;9.590;2023-02-15T09:05:13;12.90;;;4.63;;
72949;SDS011;64868;45.710;9.590;2023-02-15T09:07:46;9.35;;;3.58;;
72949;SDS011;64868;45.710;9.590;2023-02-15T09:10:16;10.73;;;3.97;;
72949;SDS011;64868;45.710;9.590;2023-02-15T09:12:49;11.32;;;4.45;;
72949;SDS011;64868;45.710;9.590;2023-02-15T09:15:18;11.07;;;4.70;;
72949;SDS011;64868;45.710;9.590;2023-02-15T09:17:46;10.82;;;5.18;;
72949;SDS011;64868;45.710;9.590;2023-02-15T09:20:16;13.00;;;5.10;;
72949;SDS011;64868;45.710;9.590;2023-02-15T09:22:48;11.65;;;4.95;;
72949;SDS011;64868;45.710;9.590;2023-02-15T09:25:24;11.23;;;4.93;;
72949;SDS011;64868;45.710;9.590;2023-02-15T09:27:51;10.95;;;5.10;;
72949;SDS011;64868;45.710;9.590;2023-02-15T09:30:22;12.82;;;6.32;;
72949;SDS011;64868;45.710;9.590;2023-02-15T09:32:49;13.95;;;6.88;;
72949;SDS011;64868;45.710;9.590;2023-02-15T09:35:22;13.23;;;6.20;;
72949;SDS011;64868;45.710;9.590;2023-02-15T09:37:54;16.13;;;7.75;;
72949;SDS011;64868;45.710;9.590;2023-02-15T09:40:27;16.17;;;6.95;;
72949;SDS011;64868;45.710;9.590;2023-02-15T09:43:04;13.40;;;6.68;;
72949;SDS011;64868;45.710;9.590;2023-02-15T09:46:07;13.50;;;7.15;;
72949;SDS011;64868;45.710;9.590;2023-02-15T09:48:50;16.42;;;6.63;;
72949;SDS011;64868;45.710;9.590;2023-02-15T09:51:31;9.95;;;5.30;;
72949;SDS011;64868;45.710;9.590;2023-02-15T09:54:33;11.25;;;5.72;;
72949;SDS011;64868;45.710;9.590;2023-02-15T09:57:32;10.60;;;5.10;;
72949;SDS011;64868;45.710;9.590;2023-02-15T10:03:09;11.55;;;5.43;;
72949;SDS011;64868;45.710;9.590;2023-02-15T10:06:00;12.77;;;5.97;;
72949;SDS011;64868;45.710;9.590;2023-02-15T10:25:48;12.32;;;6.25;;
72949;SDS011;64868;45.710;9.590;2023-02-15T10:28:50;15.38;;;6.88;;
72949;SDS011;64868;45.710;9.590;2023-02-15T10:31:55;14.05;;;6.55;;
72949;SDS011;64868;45.710;9.590;2023-02-15T10:34:39;13.85;;;6.47;;
72949;SDS011;64868;45.710;9.590;2023-02-15T10:43:12;18.23;;;8.43;;
72949;SDS011;64868;45.710;9.590;2023-02-15T10:45:56;15.15;;;8.27;;
72949;SDS011;64868;45.710;9.590;2023-02-15T10:49:07;17.27;;;7.93;;
72949;SDS011;64868;45.710;9.590;2023-02-15T10:57:09;19.52;;;9.27;;
72949;SDS011;64868;45.710;9.590;2023-02-15T11:00:00;19.17;;;10.80;;
72949;SDS011;64868;45.710;9.590;2023-02-15T11:02:44;27.25;;;13.43;;
72949;SDS011;64868;45.710;9.590;2023-02-15T11:05:29;23.92;;;12.20;;
72949;SDS011;64868;45.710;9.590;2023-02-15T11:08:09;22.50;;;12.50;;
72949;SDS011;64868;45.710;9.590;2023-02-15T11:10:57;24.02;;;13.02;;
72949;SDS011;64868;45.710;9.590;2023-02-15T11:13:34;22.05;;;11.82;;
72949;SDS011;64868;45.710;9.590;2023-02-15T11:16:16;20.50;;;12.15;;
72949;SDS011;64868;45.710;9.590;2023-02-15T11:18:48;25.70;;;12.73;;
72949;SDS011;64868;45.710;9.590;2023-02-15T11:24:12;29.38;;;14.80;;
72949;SDS011;64868;45.710;9.590;2023-02-15T11:29:53;27.02;;;13.80;;
72949;SDS011;64868;45.710;9.590;2023-02-15T11:37:48;27.17;;;14.27;;
72949;SDS011;64868;45.710;9.590;2023-02-15T11:40:22;24.60;;;13.93;;
72949;SDS011;64868;45.710;9.590;2023-02-15T11:43:05;29.23;;;15.30;;
72949;SDS011;64868;45.710;9.590;2023-02-15T11:45:56;25.83;;;14.85;;
72949;SDS011;64868;45.710;9.590;2023-02-15T11:48:26;24.92;;;15.48;;
72949;SDS011;64868;45.710;9.590;2023-02-15T11:50:59;29.60;;;17.17;;
72949;SDS011;64868;45.710;9.590;2023-02-15T11:55:57;31.83;;;18.13;;
72949;SDS011;64868;45.710;9.590;2023-02-15T11:58:40;32.83;;;17.65;;
72949;SDS011;64868;45.710;9.590;2023-02-15T12:06:41;36.63;;;18.95;;
72949;SDS011;64868;45.710;9.590;2023-02-15T12:15:03;35.50;;;16.48;;
72949;SDS011;64868;45.710;9.590;2023-02-15T12:17:40;34.28;;;16.58;;
72949;SDS011;64868;45.710;9.590;2023-02-15T12:20:23;35.17;;;16.88;;
72949;SDS011;64868;45.710;9.590;2023-02-15T12:23:03;34.42;;;16.08;;
72949;SDS011;64868;45.710;9.590;2023-02-15T12:25:44;34.15;;;14.98;;
72949;SDS011;64868;45.710;9.590;2023-02-15T12:29:12;35.08;;;14.40;;
72949;SDS011;64868;45.710;9.590;2023-02-15T12:33:57;33.42;;;15.10;;
72949;SDS011;64868;45.710;9.590;2023-02-15T12:36:40;35.28;;;16.05;;
72949;SDS011;64868;45.710;9.590;2023-02-15T12:39:21;40.22;;;16.25;;
72949;SDS011;64868;45.710;9.590;2023-02-15T12:42:05;35.13;;;16.67;;
72949;SDS011;64868;45.710;9.590;2023-02-15T12:44:55;38.78;;;17.45;;
72949;SDS011;64868;45.710;9.590;2023-02-15T12:47:26;42.60;;;19.55;;
72949;SDS011;64868;45.710;9.590;2023-02-15T12:50:05;39.92;;;18.20;;
72949;SDS011;64868;45.710;9.590;2023-02-15T12:52:36;36.20;;;17.40;;
72949;SDS011;64868;45.710;9.590;2023-02-15T12:55:16;41.85;;;19.83;;
72949;SDS011;64868;45.710;9.590;2023-02-15T13:00:49;42.03;;;19.48;;
72949;SDS011;64868;45.710;9.590;2023-02-15T13:03:38;45.95;;;20.92;;
72949;SDS011;64868;45.710;9.590;2023-02-15T13:06:24;43.55;;;20.42;;
72949;SDS011;64868;45.710;9.590;2023-02-15T13:08:54;40.70;;;18.85;;
72949;SDS011;64868;45.710;9.590;2023-02-15T13:11:33;37.20;;;17.35;;
72949;SDS011;64868;45.710;9.590;2023-02-15T13:14:16;42.88;;;20.27;;
72949;SDS011;64868;45.710;9.590;2023-02-15T13:16:49;38.15;;;17.75;;
72949;SDS011;64868;45.710;9.590;2023-02-15T13:22:18;43.88;;;20.30;;
72949;SDS011;64868;45.710;9.590;2023-02-15T13:24:52;46.85;;;20.83;;
72949;SDS011;64868;45.710;9.590;2023-02-15T13:27:24;45.33;;;20.27;;
72949;SDS011;64868;45.710;9.590;2023-02-15T13:30:01;43.35;;;20.48;;
72949;SDS011;64868;45.710;9.590;2023-02-15T13:32:40;45.60;;;20.83;;
72949;SDS011;64868;45.710;9.590;2023-02-15T13:35:13;43.30;;;19.80;;
72949;SDS011;64868;45.710;9.590;2023-02-15T13:40:22;47.63;;;20.63;;
72949;SDS011;64868;45.710;9.590;2023-02-15T13:42:59;49.40;;;21.95;;
72949;SDS011;64868;45.710;9.590;2023-02-15T13:48:41;49.17;;;23.73;;
72949;SDS011;64868;45.710;9.590;2023-02-15T13:51:25;50.92;;;22.75;;
72949;SDS011;64868;45.710;9.590;2023-02-15T13:57:08;49.50;;;22.63;;
72949;SDS011;64868;45.710;9.590;2023-02-15T14:00:01;46.55;;;21.83;;
72949;SDS011;64868;45.710;9.590;2023-02-15T14:03:03;47.22;;;21.58;;
72949;SDS011;64868;45.710;9.590;2023-02-15T14:08:21;51.33;;;22.70;;
72949;SDS011;64868;45.710;9.590;2023-02-15T14:11:07;46.60;;;21.85;;
72949;SDS011;64868;45.710;9.590;2023-02-15T14:13:48;47.78;;;22.42;;
72949;SDS011;64868;45.710;9.590;2023-02-15T14:16:26;52.30;;;24.15;;
72949;SDS011;64868;45.710;9.590;2023-02-15T14:19:31;47.35;;;21.50;;
72949;SDS011;64868;45.710;9.590;2023-02-15T14:22:33;50.88;;;22.33;;
72949;SDS011;64868;45.710;9.590;2023-02-15T14:28:11;53.10;;;23.65;;
72949;SDS011;64868;45.710;9.590;2023-02-15T14:30:47;58.35;;;22.00;;
72949;SDS011;64868;45.710;9.590;2023-02-15T14:36:05;49.53;;;22.42;;
72949;SDS011;64868;45.710;9.590;2023-02-15T14:42:43;49.08;;;22.98;;
72949;SDS011;64868;45.710;9.590;2023-02-15T14:44:57;49.38;;;22.58;;
72949;SDS011;64868;45.710;9.590;2023-02-15T14:47:34;59.65;;;23.48;;
72949;SDS011;64868;45.710;9.590;2023-02-15T14:56:14;51.83;;;23.23;;
72949;SDS011;64868;45.710;9.590;2023-02-15T15:01:27;53.63;;;22.67;;
72949;SDS011;64868;45.710;9.590;2023-02-15T15:04:01;54.13;;;23.88;;
72949;SDS011;64868;45.710;9.590;2023-02-15T15:06:35;46.67;;;22.60;;
72949;SDS011;64868;45.710;9.590;2023-02-15T15:09:25;49.42;;;23.25;;
72949;SDS011;64868;45.710;9.590;2023-02-15T15:14:49;54.47;;;23.20;;
72949;SDS011;64868;45.710;9.590;2023-02-15T15:17:51;55.35;;;24.67;;
72949;SDS011;64868;45.710;9.590;2023-02-15T15:25:53;56.72;;;25.52;;
72949;SDS011;64868;45.710;9.590;2023-02-15T15:34:17;53.03;;;25.35;;
72949;SDS011;64868;45.710;9.590;2023-02-15T15:43:01;51.25;;;26.08;;
72949;SDS011;64868;45.710;9.590;2023-02-15T15:45:43;49.53;;;26.45;;
72949;SDS011;64868;45.710;9.590;2023-02-15T15:51:24;58.25;;;26.80;;
72949;SDS011;64868;45.710;9.590;2023-02-15T15:53:58;55.80;;;26.20;;
72949;SDS011;64868;45.710;9.590;2023-02-15T15:56:30;57.78;;;26.17;;
72949;SDS011;64868;45.710;9.590;2023-02-15T15:59:02;50.47;;;23.73;;
72949;SDS011;64868;45.710;9.590;2023-02-15T16:01:34;61.72;;;25.40;;
72949;SDS011;64868;45.710;9.590;2023-02-15T16:04:10;52.78;;;26.08;;
72949;SDS011;64868;45.710;9.590;2023-02-15T16:06:49;59.33;;;27.20;;
72949;SDS011;64868;45.710;9.590;2023-02-15T16:09:19;59.03;;;24.88;;
72949;SDS011;64868;45.710;9.590;2023-02-15T16:11:51;51.60;;;24.60;;
72949;SDS011;64868;45.710;9.590;2023-02-15T16:14:30;60.20;;;26.70;;
72949;SDS011;64868;45.710;9.590;2023-02-15T16:17:02;58.33;;;25.98;;
72949;SDS011;64868;45.710;9.590;2023-02-15T16:19:32;62.13;;;25.83;;
72949;SDS011;64868;45.710;9.590;2023-02-15T16:22:02;58.75;;;24.30;;
72949;SDS011;64868;45.710;9.590;2023-02-15T16:24:42;58.13;;;24.55;;
72949;SDS011;64868;45.710;9.590;2023-02-15T16:33:08;50.70;;;21.02;;
72949;SDS011;64868;45.710;9.590;2023-02-15T16:35:52;47.40;;;21.23;;
72949;SDS011;64868;45.710;9.590;2023-02-15T16:41:31;48.53;;;21.02;;
72949;SDS011;64868;45.710;9.590;2023-02-15T16:44:01;44.92;;;20.23;;
72949;SDS011;64868;45.710;9.590;2023-02-15T16:46:35;45.00;;;20.00;;
72949;SDS011;64868;45.710;9.590;2023-02-15T16:49:16;47.17;;;20.50;;
72949;SDS011;64868;45.710;9.590;2023-02-15T16:51:54;54.30;;;25.35;;
72949;SDS011;64868;45.710;9.590;2023-02-15T16:54:25;59.30;;;24.38;;
72949;SDS011;64868;45.710;9.590;2023-02-15T16:56:54;61.42;;;26.70;;
72949;SDS011;64868;45.710;9.590;2023-02-15T16:59:30;61.40;;;26.52;;
72949;SDS011;64868;45.710;9.590;2023-02-15T17:02:01;57.47;;;22.33;;
72949;SDS011;64868;45.710;9.590;2023-02-15T17:04:36;68.70;;;27.10;;
72949;SDS011;64868;45.710;9.590;2023-02-15T17:07:23;63.35;;;27.20;;
72949;SDS011;64868;45.710;9.590;2023-02-15T17:09:53;65.20;;;26.55;;
72949;SDS011;64868;45.710;9.590;2023-02-15T17:15:32;60.67;;;25.83;;
72949;SDS011;64868;45.710;9.590;2023-02-15T17:18:01;62.08;;;26.83;;
72949;SDS011;64868;45.710;9.590;2023-02-15T17:20:30;61.38;;;25.52;;
72949;SDS011;64868;45.710;9.590;2023-02-15T17:23:04;58.53;;;26.38;;
72949;SDS011;64868;45.710;9.590;2023-02-15T17:25:37;54.60;;;25.05;;
72949;SDS011;64868;45.710;9.590;2023-02-15T17:28:15;64.90;;;23.83;;
72949;SDS011;64868;45.710;9.590;2023-02-15T17:30:48;53.45;;;23.58;;
72949;SDS011;64868;45.710;9.590;2023-02-15T17:33:22;60.35;;;24.60;;
72949;SDS011;64868;45.710;9.590;2023-02-15T17:36:08;55.95;;;24.67;;
72949;SDS011;64868;45.710;9.590;2023-02-15T17:38:39;57.25;;;23.15;;
72949;SDS011;64868;45.710;9.590;2023-02-15T17:41:27;56.70;;;23.88;;
72949;SDS011;64868;45.710;9.590;2023-02-15T17:44:03;49.95;;;22.98;;
72949;SDS011;64868;45.710;9.590;2023-02-15T17:46:38;56.58;;;24.05;;
72949;SDS011;64868;45.710;9.590;2023-02-15T17:49:13;59.35;;;23.52;;
72949;SDS011;64868;45.710;9.590;2023-02-15T17:51:58;53.50;;;23.33;;
72949;SDS011;64868;45.710;9.590;2023-02-15T17:54:27;49.50;;;21.63;;
72949;SDS011;64868;45.710;9.590;2023-02-15T17:57:14;53.78;;;22.27;;
72949;SDS011;64868;45.710;9.590;2023-02-15T17:59:45;52.03;;;23.63;;